Time;durP1;ratioP1;P1;durP2;ratioP2;P2;SDS_P1;SDS_P2;PMS_P1;PMS_P2;Temp;Humidity;BMP_temperature;BMP_pressure;BME280_temperature;BME280_humidity;BME280_pressure;Samples;Min_cycle;Max_cycle;Signal;HPM_P1;HPM_P2
2021/05/03 00:05:35;;;;;;;11.80;7.25;;;;;;;6.83;78.62;98782.47;4173532;84;21319;-88
2021/05/03 00:11:36;;;;;;;10.72;6.42;;;;;;;6.85;78.53;98782.88;4169400;84;21154;-88
2021/05/03 00:17:39;;;;;;;11.10;6.17;;;;;;;6.83;78.28;98793.35;4170062;84;21170;-88
2021/05/03 00:23:40;;;;;;;8.53;5.72;;;;;;;6.80;77.74;98792.11;4168638;84;21353;-89
2021/05/03 00:29:42;;;;;;;10.58;6.62;;;;;;;6.77;77.79;98800.19;4170348;84;21710;-88
2021/05/03 00:35:43;;;;;;;12.85;8.33;;;;;;;6.81;78.22;98809.23;4170397;84;21182;-89
2021/05/03 00:41:45;;;;;;;13.98;8.90;;;;;;;6.86;78.47;98817.13;4172225;84;21193;-89
2021/05/03 00:47:46;;;;;;;10.28;6.87;;;;;;;6.80;78.32;98816.59;4167796;84;21313;-88
2021/05/03 00:53:48;;;;;;;12.10;7.50;;;;;;;6.76;78.37;98808.14;4166537;84;21743;-89
2021/05/03 00:59:50;;;;;;;12.05;6.60;;;;;;;6.75;78.35;98808.70;4168145;84;21192;-88
2021/05/03 01:05:51;;;;;;;11.75;7.85;;;;;;;6.74;78.76;98815.86;4169193;84;21619;-88
2021/05/03 01:11:53;;;;;;;10.98;8.18;;;;;;;6.70;78.47;98810.36;4167975;84;21382;-89
2021/05/03 01:17:59;;;;;;;14.58;9.33;;;;;;;6.67;78.63;98817.84;4169094;84;21587;-89
2021/05/03 01:24:01;;;;;;;12.40;8.13;;;;;;;6.64;78.92;98830.02;4170377;84;21289;-90
2021/05/03 01:30:07;;;;;;;20.52;11.33;;;;;;;6.53;79.11;98833.82;4169967;84;21226;-88
2021/05/03 01:36:09;;;;;;;14.63;9.67;;;;;;;6.43;79.24;98836.28;4169272;84;21624;-89
2021/05/03 01:42:10;;;;;;;18.12;10.78;;;;;;;6.38;80.02;98835.42;4170619;84;21344;-89
2021/05/03 01:48:19;;;;;;;16.07;10.03;;;;;;;6.35;80.11;98838.84;4169909;84;21130;-88
2021/05/03 01:54:21;;;;;;;16.50;11.68;;;;;;;6.27;80.50;98840.36;4170888;84;21203;-88
2021/05/03 02:00:22;;;;;;;20.85;13.22;;;;;;;6.33;80.72;98841.12;4168532;84;21206;-88
2021/05/03 02:06:24;;;;;;;13.50;9.83;;;;;;;6.43;80.81;98844.44;4167470;84;21324;-88
2021/05/03 02:12:25;;;;;;;11.60;8.50;;;;;;;6.40;81.29;98842.64;4168769;84;21198;-88
2021/05/03 02:18:27;;;;;;;14.23;9.50;;;;;;;6.43;81.28;98840.37;4166313;84;21198;-88
2021/05/03 02:24:29;;;;;;;16.07;10.35;;;;;;;6.44;81.36;98831.09;4169776;84;21191;-88
2021/05/03 02:30:30;;;;;;;13.13;9.50;;;;;;;6.42;81.47;98841.52;4169426;84;21159;-89
2021/05/03 02:36:32;;;;;;;11.65;8.33;;;;;;;6.38;81.85;98852.30;4170115;84;21468;-90
2021/05/03 02:42:33;;;;;;;10.55;8.13;;;;;;;6.36;81.82;98860.80;4169636;84;21177;-89
2021/05/03 02:48:35;;;;;;;16.07;10.03;;;;;;;6.36;81.78;98868.16;4244886;81;26582;-89
2021/05/03 02:54:36;;;;;;;13.40;9.75;;;;;;;6.33;81.74;98872.94;4276200;81;22267;-82
2021/05/03 03:00:38;;;;;;;11.78;9.33;;;;;;;6.28;81.86;98883.51;4280448;81;21756;-82
2021/05/03 03:06:40;;;;;;;13.25;8.90;;;;;;;6.27;81.90;98882.50;4272216;81;21200;-82
2021/05/03 03:12:41;;;;;;;11.50;8.25;;;;;;;6.28;82.22;98888.94;4281409;81;21310;-83
2021/05/03 03:18:43;;;;;;;11.73;8.60;;;;;;;6.28;81.75;98898.45;4272815;81;21259;-81
2021/05/03 03:24:44;;;;;;;12.43;7.00;;;;;;;6.24;81.75;98907.10;4281493;81;21208;-82
2021/05/03 03:30:45;;;;;;;9.93;7.37;;;;;;;6.21;81.67;98907.00;4283215;80;21148;-83
2021/05/03 03:36:47;;;;;;;11.60;7.53;;;;;;;6.20;81.73;98922.51;4275001;81;21200;-82
2021/05/03 03:42:49;;;;;;;11.40;8.25;;;;;;;6.19;81.55;98933.73;4281870;81;21198;-82
2021/05/03 03:48:50;;;;;;;10.10;7.45;;;;;;;6.20;81.52;98944.84;4283789;81;21224;-83
2021/05/03 03:54:52;;;;;;;10.43;7.30;;;;;;;6.22;81.82;98951.50;4280813;81;21292;-82
2021/05/03 04:00:54;;;;;;;9.55;7.37;;;;;;;6.27;81.66;98965.41;4282591;81;21609;-83
2021/05/03 04:07:02;;;;;;;11.18;6.67;;;;;;;6.30;81.64;98967.43;4281091;81;21204;-82
2021/05/03 04:13:23;;;;;;;9.33;6.83;;;;;;;6.32;81.61;98980.12;4276199;80;21337;-82
2021/05/03 04:25:38;;;;;;;8.45;6.70;;;;;;;6.35;81.73;98973.98;4277496;81;21208;-83
2021/05/03 04:31:38;;;;;;;11.20;6.70;;;;;;;6.47;81.80;98973.91;4275854;81;21286;-83
2021/05/03 04:37:39;;;;;;;11.38;6.92;;;;;;;6.54;81.57;98983.64;4232355;81;22266;-83
2021/05/03 04:43:41;;;;;;;8.48;6.85;;;;;;;6.63;81.83;98987.53;4206115;83;21236;-83
2021/05/03 04:49:42;;;;;;;11.68;7.20;;;;;;;6.72;81.70;98982.16;4207468;83;21146;-83
2021/05/03 04:55:43;;;;;;;10.03;7.08;;;;;;;6.77;81.64;98980.55;4204315;83;21158;-83
2021/05/03 05:01:45;;;;;;;9.65;7.08;;;;;;;6.78;81.49;98986.78;4215077;83;21636;-83
2021/05/03 05:07:47;;;;;;;11.45;6.75;;;;;;;6.95;81.46;98989.96;4207678;83;21293;-83
2021/05/03 05:13:48;;;;;;;9.15;7.05;;;;;;;7.05;81.46;98996.22;4202603;83;21190;-82
2021/05/03 05:19:50;;;;;;;9.55;6.65;;;;;;;7.19;81.07;98997.13;4207667;83;21233;-82
2021/05/03 05:25:52;;;;;;;11.15;6.70;;;;;;;7.44;80.34;99003.39;4209993;82;21606;-83
2021/05/03 05:31:53;;;;;;;8.60;6.47;;;;;;;7.58;79.94;99016.58;4210793;83;21970;-82
2021/05/03 05:37:55;;;;;;;8.30;5.80;;;;;;;7.63;79.94;99041.59;4206772;83;21178;-83
2021/05/03 05:43:56;;;;;;;7.97;5.28;;;;;;;7.58;79.73;99034.28;4201463;83;21217;-83
2021/05/03 05:49:58;;;;;;;6.45;4.72;;;;;;;7.61;79.57;99032.21;4205676;83;21367;-82
2021/05/03 05:56:01;;;;;;;8.40;4.25;;;;;;;7.69;79.10;99033.36;4211658;83;21339;-82
2021/05/03 06:02:02;;;;;;;5.62;3.60;;;;;;;7.86;78.78;99036.29;4202264;83;21334;-83
2021/05/03 06:08:18;;;;;;;;;;;;;;;;;;;;;
2021/05/03 06:25:11;;;;;;;6.90;4.42;;;;;;;7.70;76.49;99054.03;4497260;76;22308;-84
2021/05/03 06:31:12;;;;;;;3.52;3.20;;;;;;;7.27;77.62;99062.31;4333204;80;21283;-84
2021/05/03 06:37:14;;;;;;;8.00;5.22;;;;;;;7.31;78.59;99063.17;4357613;79;21255;-83
2021/05/03 06:43:16;;;;;;;7.75;5.30;;;;;;;7.47;79.12;99081.67;4346217;79;22137;-84
2021/05/03 06:49:18;;;;;;;6.70;4.15;;;;;;;7.64;78.84;99088.12;4355408;79;21188;-83
2021/05/03 06:55:21;;;;;;;5.90;4.30;;;;;;;7.80;79.02;99107.97;4347939;79;21370;-83
2021/05/03 07:01:23;;;;;;;6.10;4.40;;;;;;;7.58;78.51;99102.39;4360986;79;21684;-83
2021/05/03 07:07:24;;;;;;;5.62;4.53;;;;;;;7.48;78.13;99100.17;4335558;79;21216;-82
2021/05/03 07:13:26;;;;;;;6.75;4.12;;;;;;;7.58;78.41;99090.90;4361528;79;21464;-83
2021/05/03 07:19:28;;;;;;;5.37;3.60;;;;;;;8.08;78.59;99088.74;4345987;80;21243;-82
2021/05/03 07:25:29;;;;;;;3.90;3.47;;;;;;;8.26;77.64;99102.23;4344800;79;21189;-83
2021/05/03 07:31:32;;;;;;;15.30;6.47;;;;;;;8.25;77.54;99121.69;4346592;79;21213;-83
2021/05/03 07:37:33;;;;;;;8.18;6.30;;;;;;;8.19;77.18;99127.94;4340594;79;21599;-87
2021/05/03 07:43:36;;;;;;;8.50;6.87;;;;;;;8.61;76.72;99134.95;4340410;79;21631;-83
2021/05/03 07:49:39;;;;;;;8.00;5.47;;;;;;;8.63;74.98;99133.42;4312186;81;21430;-83
2021/05/03 07:55:40;;;;;;;7.83;5.70;;;;;;;8.54;75.81;99145.13;4306534;81;21647;-83
2021/05/03 08:01:42;;;;;;;11.97;8.88;;;;;;;8.58;76.38;99151.44;4302995;81;21172;-83
2021/05/03 08:07:43;;;;;;;11.75;8.00;;;;;;;8.64;76.10;99150.59;4364134;79;21167;-83
2021/05/03 08:13:46;;;;;;;12.93;8.20;;;;;;;8.67;75.75;99161.59;4351718;79;21157;-83
2021/05/03 08:19:48;;;;;;;10.10;7.47;;;;;;;8.47;75.75;99178.30;4255170;82;21246;-83
2021/05/03 08:25:53;;;;;;;12.45;7.58;;;;;;;8.27;75.73;99188.95;4240092;83;21261;-83
2021/05/03 08:31:56;;;;;;;11.68;7.12;;;;;;;8.29;76.40;99179.81;4291140;81;21252;-83
2021/05/03 08:37:58;;;;;;;9.10;6.47;;;;;;;8.45;75.40;99184.67;4351908;80;21769;-83
2021/05/03 08:44:00;;;;;;;10.30;6.25;;;;;;;8.52;75.63;99201.98;4340003;80;21232;-83
2021/05/03 08:56:15;;;;;;;8.58;5.15;;;;;;;9.51;71.22;99181.57;4504360;77;22911;-82
2021/05/03 09:02:17;;;;;;;7.97;3.67;;;;;;;10.25;74.11;99193.22;4432563;78;21161;-82
2021/05/03 09:08:25;;;;;;;6.25;2.70;;;;;;;10.29;72.00;99187.81;4432870;78;21331;-83
2021/05/03 09:14:28;;;;;;;7.15;4.00;;;;;;;10.27;71.86;99190.11;4440184;78;21343;-83
2021/05/03 09:20:30;;;;;;;6.08;2.90;;;;;;;10.60;70.24;99196.46;4392481;78;21990;-83
2021/05/03 09:26:38;;;;;;;5.97;2.87;;;;;;;10.54;69.80;99198.55;4444909;78;21284;-82
2021/05/03 09:32:40;;;;;;;5.40;2.15;;;;;;;11.65;70.49;99199.72;4330415;81;21499;-83
2021/05/03 09:38:45;;;;;;;4.15;1.60;;;;;;;13.01;67.97;99203.31;4346751;81;21180;-83
2021/05/03 09:45:19;;;;;;;1.40;1.00;;;;;;;13.36;66.57;99206.80;4304980;81;21337;-83
2021/05/03 09:51:50;;;;;;;2.95;1.85;;;;;;;13.19;65.29;99211.04;4311778;81;21792;-83
2021/05/03 09:58:22;;;;;;;4.08;1.77;;;;;;;13.02;64.61;99216.45;4304060;81;21179;-84
2021/05/03 10:04:23;;;;;;;2.77;1.40;;;;;;;13.67;60.80;99203.34;4323436;81;21725;-83
2021/05/03 10:10:36;;;;;;;2.02;1.40;;;;;;;14.84;62.93;99202.94;4288330;81;21109;-83
2021/05/03 10:16:31;;;;;;;2.77;1.37;;;;;;;15.48;61.34;99209.01;4329400;81;21154;-83
2021/05/03 10:22:32;;;;;;;5.60;1.60;;;;;;;14.72;60.73;99201.95;4332951;81;21129;-83
2021/05/03 10:28:55;;;;;;;3.15;1.32;;;;;;;15.70;58.28;99199.42;4339004;81;21149;-83
2021/05/03 10:34:59;;;;;;;5.65;1.70;;;;;;;15.80;59.25;99201.92;4347194;81;21177;-83
2021/05/03 10:41:02;;;;;;;3.45;1.25;;;;;;;16.06;57.31;99215.94;4350444;79;21587;-83
2021/05/03 10:47:34;;;;;;;2.02;1.07;;;;;;;16.66;53.64;99219.61;4280636;81;21602;-83
2021/05/03 10:59:55;;;;;;;3.25;1.10;;;;;;;17.41;53.03;99227.25;4572299;76;22860;-83
2021/05/03 11:05:58;;;;;;;4.60;1.35;;;;;;;17.73;53.34;99219.35;4507928;77;21293;-84
2021/05/03 11:12:14;;;;;;;3.52;1.40;;;;;;;16.54;50.35;99204.89;4348475;80;21217;-83
2021/05/03 11:18:24;;;;;;;3.60;1.50;;;;;;;16.17;52.29;99212.50;4423053;78;21177;-83
2021/05/03 11:24:33;;;;;;;4.05;1.57;;;;;;;16.18;51.53;99199.45;4423315;78;21725;-83
2021/05/03 11:30:44;;;;;;;3.22;1.55;;;;;;;15.38;50.41;99203.73;4414331;78;21161;-84
2021/05/03 11:36:51;;;;;;;5.92;1.35;;;;;;;15.48;49.61;99203.49;4425587;79;21162;-83
2021/05/03 11:49:16;;;;;;;4.25;1.40;;;;;;;15.90;47.16;99218.41;4349498;80;21155;-84
2021/05/03 11:55:22;;;;;;;4.55;1.65;;;;;;;15.09;46.57;99228.45;4349962;80;21295;-83
2021/05/03 12:01:29;;;;;;;3.83;2.07;;;;;;;14.50;48.31;99242.35;4359325;80;21208;-83
2021/05/03 12:07:32;;;;;;;3.72;2.22;;;;;;;13.81;47.92;99256.41;4385773;79;21177;-83
2021/05/03 12:13:34;;;;;;;6.65;3.50;;;;;;;13.27;48.40;99264.08;4383924;79;21154;-83
2021/05/03 12:19:37;;;;;;;7.15;3.52;;;;;;;13.19;49.12;99255.02;4384491;79;21185;-84
2021/05/03 12:31:55;;;;;;;3.92;2.00;;;;;;;13.33;51.28;99235.04;4389287;79;22954;-83
2021/05/03 12:37:56;;;;;;;4.65;2.50;;;;;;;13.24;47.06;99235.41;4331668;81;21187;-83
2021/05/03 12:44:02;;;;;;;8.13;3.00;;;;;;;13.19;48.10;99232.23;4323073;81;22257;-83
2021/05/03 13:02:32;;;;;;;5.08;2.42;;;;;;;13.93;47.61;99232.67;4325847;80;21161;-85
2021/05/03 13:33:43;;;;;;;4.20;2.35;;;;;;;12.62;49.43;99214.65;4026934;86;21212;-84
2021/05/03 13:39:46;;;;;;;3.92;2.08;;;;;;;13.12;49.25;99223.39;4016349;86;21193;-84
2021/05/03 13:45:47;;;;;;;4.33;2.20;;;;;;;13.85;49.24;99219.27;4017575;87;21380;-84
2021/05/03 13:51:49;;;;;;;3.62;2.00;;;;;;;14.29;47.72;99224.45;4025974;87;21683;-83
2021/05/03 13:57:50;;;;;;;4.05;2.17;;;;;;;14.51;47.47;99213.03;4009038;86;21200;-83
2021/05/03 14:03:52;;;;;;;4.58;2.00;;;;;;;14.61;46.98;99207.31;4012896;86;21315;-83
2021/05/03 14:09:53;;;;;;;2.77;2.10;;;;;;;14.54;46.24;99199.84;4008166;86;21232;-84
2021/05/03 14:15:55;;;;;;;4.47;2.50;;;;;;;14.30;46.17;99205.39;4019911;86;21196;-83
2021/05/03 14:21:56;;;;;;;3.60;2.00;;;;;;;14.52;45.13;99210.46;4002962;86;21184;-83
2021/05/03 14:28:00;;;;;;;3.12;1.75;;;;;;;14.31;45.35;99204.20;4012394;87;21181;-83
2021/05/03 14:34:07;;;;;;;7.40;2.00;;;;;;;14.83;45.12;99198.59;4018324;87;21188;-83
2021/05/03 14:40:09;;;;;;;3.80;2.47;;;;;;;14.79;44.19;99201.16;4011861;87;21871;-84
2021/05/03 14:46:14;;;;;;;5.67;2.80;;;;;;;14.39;42.04;99205.77;4031352;87;21184;-84
2021/05/03 14:58:25;;;;;;;5.42;2.30;;;;;;;13.01;44.39;99207.44;4410258;77;28683;-84
2021/05/03 15:04:27;;;;;;;3.08;2.33;;;;;;;12.98;43.43;99203.27;4402031;79;21619;-83
2021/05/03 15:10:29;;;;;;;6.22;2.17;;;;;;;12.57;44.14;99208.14;4393048;79;21354;-83
2021/05/03 15:22:52;;;;;;;6.47;2.80;;;;;;;12.25;45.71;99205.16;4402014;79;28326;-82
2021/05/03 15:35:16;;;;;;;4.83;2.33;;;;;;;12.23;45.12;99202.00;4383493;79;21566;-83
2021/05/03 15:41:19;;;;;;;3.67;2.00;;;;;;;11.73;45.34;99189.62;4381485;80;21171;-84
2021/05/03 15:47:21;;;;;;;4.12;2.27;;;;;;;11.38;45.39;99191.39;4391252;80;21316;-84
2021/05/03 15:53:25;;;;;;;6.75;2.55;;;;;;;11.20;46.20;99197.23;4385546;80;21142;-83
2021/05/03 15:59:28;;;;;;;5.00;3.45;;;;;;;11.13;46.48;99196.57;4378984;80;21307;-83
2021/05/03 16:05:30;;;;;;;4.50;2.67;;;;;;;11.17;46.19;99192.51;4390708;80;21257;-83
2021/05/03 16:11:32;;;;;;;4.60;2.92;;;;;;;11.30;46.83;99191.67;4400574;80;21641;-82
2021/05/03 16:17:34;;;;;;;3.98;2.67;;;;;;;11.51;47.35;99201.52;4267221;80;64984;-83
2021/05/03 16:23:38;;;;;;;6.17;2.90;;;;;;;11.49;46.85;99204.63;4218747;79;25687;-82
2021/05/03 16:29:40;;;;;;;5.87;2.98;;;;;;;11.26;46.77;99212.78;4170494;84;21903;-82
2021/05/03 16:35:42;;;;;;;5.50;3.05;;;;;;;10.98;47.31;99207.16;4173139;84;21196;-82
2021/05/03 16:41:44;;;;;;;7.78;3.15;;;;;;;10.62;47.94;99210.58;4173181;84;21710;-82
2021/05/03 16:47:51;;;;;;;8.70;5.42;;;;;;;10.30;48.41;99207.96;4173180;84;21854;-82
2021/05/03 16:53:55;;;;;;;9.30;5.22;;;;;;;10.09;48.54;99208.98;4153412;84;21792;-82
2021/05/03 16:59:56;;;;;;;9.13;4.03;;;;;;;9.94;48.63;99219.45;4170327;84;21326;-83
2021/05/03 17:05:57;;;;;;;8.63;4.78;;;;;;;9.95;49.82;99217.48;4169577;84;21211;-83
2021/05/03 17:19:06;;;;;;;6.92;3.67;;;;;;;9.90;49.34;99214.48;4083787;84;21866;-82
2021/05/03 17:25:09;;;;;;;6.70;3.75;;;;;;;9.69;49.72;99216.86;4066013;86;21250;-83
2021/05/03 17:31:11;;;;;;;7.03;4.08;;;;;;;9.52;49.94;99213.23;4067587;86;21405;-83
2021/05/03 17:37:12;;;;;;;8.43;4.65;;;;;;;9.30;50.97;99213.98;4063228;86;21238;-84
2021/05/03 17:43:14;;;;;;;9.68;4.80;;;;;;;9.00;51.13;99225.27;4064237;86;21232;-83
2021/05/03 17:49:16;;;;;;;8.93;4.55;;;;;;;8.63;51.92;99233.63;4064084;86;21192;-83
2021/05/03 17:55:18;;;;;;;8.98;5.37;;;;;;;8.32;53.17;99235.82;4045667;86;21204;-83
2021/05/03 18:01:22;;;;;;;10.48;5.40;;;;;;;8.00;53.31;99231.52;3951900;83;9999756;-83
2021/05/03 18:07:23;;;;;;;12.93;7.00;;;;;;;7.81;53.94;99238.23;4067264;86;21682;-83
2021/05/03 18:13:25;;;;;;;18.98;10.53;;;;;;;7.63;54.17;99239.13;4067353;86;21227;-83
2021/05/03 18:19:32;;;;;;;18.90;10.13;;;;;;;7.45;54.06;99244.68;4068400;85;21223;-83
2021/05/03 18:25:33;;;;;;;22.93;12.40;;;;;;;7.30;55.32;99248.70;4069384;85;21226;-83
2021/05/03 18:31:35;;;;;;;25.82;12.43;;;;;;;7.12;54.82;99247.42;4067569;85;21443;-83
2021/05/03 18:37:36;;;;;;;20.23;10.93;;;;;;;6.86;55.29;99255.98;4069268;85;21355;-83
2021/05/03 18:43:38;;;;;;;21.45;11.05;;;;;;;6.67;55.71;99257.16;4076738;85;21628;-83
2021/05/03 18:49:46;;;;;;;21.12;12.05;;;;;;;6.58;56.34;99270.09;4068057;85;21521;-83
2021/05/03 18:55:43;;;;;;;22.93;11.55;;;;;;;6.58;57.89;99269.33;4070734;85;21244;-83
2021/05/03 19:01:44;;;;;;;22.62;10.82;;;;;;;6.69;57.91;99269.86;3958295;85;9999841;-83
2021/05/03 19:07:46;;;;;;;21.45;9.50;;;;;;;6.67;59.59;99272.70;4072066;85;21190;-82
2021/05/03 19:13:48;;;;;;;19.82;9.33;;;;;;;6.75;60.31;99267.71;4071416;85;21388;-82
2021/05/03 19:19:50;;;;;;;15.90;9.75;;;;;;;6.88;60.46;99274.14;4066769;85;21247;-82
2021/05/03 19:25:52;;;;;;;22.85;11.12;;;;;;;6.88;61.02;99280.94;4071135;85;21260;-83
2021/05/03 19:32:04;;;;;;;21.87;11.83;;;;;;;6.93;61.44;99275.83;4070152;85;21271;-83
2021/05/03 19:38:01;;;;;;;22.32;11.10;;;;;;;6.88;61.57;99276.86;4071805;85;21181;-83
2021/05/03 19:44:03;;;;;;;22.37;11.93;;;;;;;6.68;60.83;99272.92;4067530;85;21614;-83
2021/05/03 19:56:31;;;;;;;23.32;11.95;;;;;;;6.44;62.26;99272.96;4387897;79;23045;-83
2021/05/03 20:08:41;;;;;;;24.98;13.40;;;;;;;6.24;62.31;99285.52;4191440;83;21233;-83
2021/05/03 20:14:43;;;;;;;25.23;12.78;;;;;;;6.09;62.14;99282.13;4191506;83;21194;-83
2021/05/03 20:20:44;;;;;;;29.57;14.25;;;;;;;6.00;62.30;99282.21;4200006;84;21199;-83
2021/05/03 20:26:45;;;;;;;27.48;14.85;;;;;;;5.87;62.97;99290.69;4198658;84;21314;-83
2021/05/03 20:32:47;;;;;;;33.28;16.77;;;;;;;5.79;63.11;99288.83;4199503;84;21193;-83
2021/05/03 20:44:56;;;;;;;35.63;17.67;;;;;;;5.72;64.02;99285.84;4194127;84;21645;-83
2021/05/03 20:50:58;;;;;;;33.70;16.20;;;;;;;5.67;64.18;99290.16;4189662;84;21197;-82
2021/05/03 20:56:59;;;;;;;35.73;17.65;;;;;;;5.59;64.02;99284.25;4205323;84;21217;-82
2021/05/03 21:03:02;;;;;;;38.80;17.67;;;;;;;5.47;63.89;99278.20;4199048;84;21335;-83
2021/05/03 21:09:04;;;;;;;36.20;16.93;;;;;;;5.25;64.04;99275.84;4196181;84;21202;-82
2021/05/03 21:15:08;;;;;;;32.10;15.65;;;;;;;5.09;64.00;99264.59;4194490;84;21173;-82
2021/05/03 21:21:10;;;;;;;33.48;17.00;;;;;;;4.90;64.87;99266.42;4191642;84;21210;-82
2021/05/03 21:27:11;;;;;;;32.38;16.67;;;;;;;4.77;65.56;99267.47;4202902;84;21189;-81
2021/05/03 21:33:13;;;;;;;41.95;19.82;;;;;;;4.55;65.64;99263.16;4201529;84;21296;-82
2021/05/03 21:39:15;;;;;;;34.23;18.20;;;;;;;4.42;66.20;99263.38;4205972;84;21161;-82
2021/05/03 21:45:18;;;;;;;31.20;15.43;;;;;;;4.29;66.46;99257.07;4187874;84;21180;-82
2021/05/03 21:51:22;;;;;;;23.85;12.20;;;;;;;4.23;66.46;99251.61;4214304;82;21258;-82
2021/05/03 21:57:24;;;;;;;23.60;13.35;;;;;;;4.16;66.46;99247.83;4278134;82;21143;-82
2021/05/03 22:03:25;;;;;;;20.45;11.48;;;;;;;4.18;67.03;99250.43;4281845;82;21560;-83
2021/05/03 22:09:27;;;;;;;19.20;11.85;;;;;;;4.17;66.75;99252.11;4285856;82;21331;-82
2021/05/03 22:15:29;;;;;;;20.45;11.22;;;;;;;4.15;67.10;99255.73;4279352;82;21135;-82
2021/05/03 22:21:39;;;;;;;21.15;10.95;;;;;;;4.02;66.83;99258.90;4272700;82;21899;-82
2021/05/03 22:33:47;;;;;;;18.15;10.10;;;;;;;4.04;68.20;99265.34;4278424;82;21250;-82
2021/05/03 22:40:09;;;;;;;21.95;11.70;;;;;;;4.03;68.41;99267.80;4278489;82;21153;-82
2021/05/03 23:17:18;;;;;;;21.48;10.88;;;;;;;3.27;69.43;99253.37;4505039;78;21327;-81
2021/05/03 23:23:20;;;;;;;23.15;11.35;;;;;;;3.24;69.14;99245.91;4500833;78;21599;-82
2021/05/03 23:29:21;;;;;;;21.05;10.28;;;;;;;3.30;69.41;99241.11;4491781;78;21561;-82
2021/05/03 23:35:22;;;;;;;18.05;9.93;;;;;;;3.27;69.66;99241.20;4507295;78;21174;-82
2021/05/03 23:41:24;;;;;;;16.93;9.75;;;;;;;3.26;70.14;99241.52;4501448;78;21161;-81
2021/05/03 23:47:26;;;;;;;18.70;9.73;;;;;;;3.23;70.08;99237.53;4501318;78;21130;-82
2021/05/03 23:53:27;;;;;;;21.87;11.68;;;;;;;3.23;70.12;99230.00;4490671;78;21158;-82
2021/05/03 23:59:29;;;;;;;23.55;12.53;;;;;;;3.11;69.90;99230.09;4493553;78;21166;-82
